sensor_id;sensor_type;location;lat;lon;timestamp;temperature;humidity
2723;DHT22;1369;53.216;10.396;2023-02-22T00:00:39;9.10;99.90
2723;DHT22;1369;53.216;10.396;2023-02-22T00:03:13;9.10;99.90
2723;DHT22;1369;53.216;10.396;2023-02-22T00:05:43;9.10;99.90
2723;DHT22;1369;53.216;10.396;2023-02-22T00:08:13;9.10;99.90
2723;DHT22;1369;53.216;10.396;2023-02-22T00:10:39;9.00;99.90
2723;DHT22;1369;53.216;10.396;2023-02-22T00:13:07;9.10;99.90
2723;DHT22;1369;53.216;10.396;2023-02-22T00:15:33;9.00;99.90
2723;DHT22;1369;53.216;10.396;2023-02-22T00:18:00;9.00;99.90
2723;DHT22;1369;53.216;10.396;2023-02-22T00:20:25;9.00;99.90
2723;DHT22;1369;53.216;10.396;2023-02-22T00:22:51;9.00;99.90
2723;DHT22;1369;53.216;10.396;2023-02-22T00:25:19;9.00;99.90
2723;DHT22;1369;53.216;10.396;2023-02-22T00:27:46;9.00;99.90
2723;DHT22;1369;53.216;10.396;2023-02-22T00:30:21;9.00;99.90
2723;DHT22;1369;53.216;10.396;2023-02-22T00:32:48;9.00;99.90
2723;DHT22;1369;53.216;10.396;2023-02-22T00:35:16;9.00;99.90
2723;DHT22;1369;53.216;10.396;2023-02-22T00:37:42;9.10;99.90
2723;DHT22;1369;53.216;10.396;2023-02-22T00:40:15;9.10;99.90
2723;DHT22;1369;53.216;10.396;2023-02-22T00:42:41;9.10;99.90
2723;DHT22;1369;53.216;10.396;2023-02-22T00:45:07;9.10;99.90
2723;DHT22;1369;53.216;10.396;2023-02-22T00:47:33;9.10;99.90
2723;DHT22;1369;53.216;10.396;2023-02-22T00:49:58;9.10;99.90
2723;DHT22;1369;53.216;10.396;2023-02-22T00:52:25;9.10;99.90
2723;DHT22;1369;53.216;10.396;2023-02-22T00:54:51;9.10;99.90
2723;DHT22;1369;53.216;10.396;2023-02-22T00:57:16;9.10;99.90
2723;DHT22;1369;53.216;10.396;2023-02-22T00:59:45;9.10;99.90
2723;DHT22;1369;53.216;10.396;2023-02-22T01:02:12;9.10;99.90
2723;DHT22;1369;53.216;10.396;2023-02-22T01:04:38;9.20;99.90
2723;DHT22;1369;53.216;10.396;2023-02-22T01:07:04;9.10;99.90
2723;DHT22;1369;53.216;10.396;2023-02-22T01:09:29;9.10;99.90
2723;DHT22;1369;53.216;10.396;2023-02-22T01:11:55;9.20;99.90
2723;DHT22;1369;53.216;10.396;2023-02-22T01:14:23;9.20;99.90
2723;DHT22;1369;53.216;10.396;2023-02-22T01:16:54;9.20;99.90
2723;DHT22;1369;53.216;10.396;2023-02-22T01:19:21;9.20;99.90
2723;DHT22;1369;53.216;10.396;2023-02-22T01:21:47;9.10;99.90
2723;DHT22;1369;53.216;10.396;2023-02-22T01:24:14;9.10;99.90
2723;DHT22;1369;53.216;10.396;2023-02-22T01:26:48;9.10;99.90
2723;DHT22;1369;53.216;10.396;2023-02-22T01:29:16;9.10;99.90
2723;DHT22;1369;53.216;10.396;2023-02-22T01:31:42;9.10;99.90
2723;DHT22;1369;53.216;10.396;2023-02-22T01:34:10;9.10;99.90
2723;DHT22;1369;53.216;10.396;2023-02-22T01:36:37;9.10;99.90
2723;DHT22;1369;53.216;10.396;2023-02-22T01:39:04;9.10;99.90
2723;DHT22;1369;53.216;10.396;2023-02-22T01:41:31;9.00;99.90
2723;DHT22;1369;53.216;10.396;2023-02-22T01:43:56;9.00;99.90
2723;DHT22;1369;53.216;10.396;2023-02-22T01:46:24;9.10;99.90
2723;DHT22;1369;53.216;10.396;2023-02-22T01:49:00;9.00;99.90
2723;DHT22;1369;53.216;10.396;2023-02-22T01:51:31;9.10;99.90
2723;DHT22;1369;53.216;10.396;2023-02-22T01:54:20;9.10;99.90
2723;DHT22;1369;53.216;10.396;2023-02-22T01:56:53;9.10;99.90
2723;DHT22;1369;53.216;10.396;2023-02-22T01:59:21;9.10;99.90
2723;DHT22;1369;53.216;10.396;2023-02-22T02:01:47;9.10;99.90
2723;DHT22;1369;53.216;10.396;2023-02-22T02:04:18;9.10;99.90
2723;DHT22;1369;53.216;10.396;2023-02-22T02:06:45;9.00;99.90
2723;DHT22;1369;53.216;10.396;2023-02-22T02:11:43;9.10;99.90
2723;DHT22;1369;53.216;10.396;2023-02-22T02:14:11;9.10;99.90
2723;DHT22;1369;53.216;10.396;2023-02-22T02:16:48;9.10;99.90
2723;DHT22;1369;53.216;10.396;2023-02-22T02:22:37;9.00;99.90
2723;DHT22;1369;53.216;10.396;2023-02-22T02:25:44;9.00;99.90
2723;DHT22;1369;53.216;10.396;2023-02-22T02:37:11;9.10;99.90
2723;DHT22;1369;53.216;10.396;2023-02-22T02:39:50;9.10;99.90
2723;DHT22;1369;53.216;10.396;2023-02-22T02:42:21;9.10;99.90
2723;DHT22;1369;53.216;10.396;2023-02-22T02:45:07;9.00;99.90
2723;DHT22;1369;53.216;10.396;2023-02-22T02:47:39;9.00;99.90
2723;DHT22;1369;53.216;10.396;2023-02-22T02:52:58;9.00;99.90
2723;DHT22;1369;53.216;10.396;2023-02-22T02:55:27;9.00;99.90
2723;DHT22;1369;53.216;10.396;2023-02-22T02:57:53;9.00;99.90
2723;DHT22;1369;53.216;10.396;2023-02-22T03:00:23;9.00;99.90
2723;DHT22;1369;53.216;10.396;2023-02-22T03:03:15;8.90;99.90
2723;DHT22;1369;53.216;10.396;2023-02-22T03:06:15;9.00;99.90
2723;DHT22;1369;53.216;10.396;2023-02-22T03:12:04;8.90;99.90
2723;DHT22;1369;53.216;10.396;2023-02-22T03:14:43;8.90;99.90
2723;DHT22;1369;53.216;10.396;2023-02-22T03:17:22;8.90;99.90
2723;DHT22;1369;53.216;10.396;2023-02-22T03:19:59;8.90;99.90
2723;DHT22;1369;53.216;10.396;2023-02-22T03:22:56;8.90;99.90
2723;DHT22;1369;53.216;10.396;2023-02-22T03:25:29;8.90;99.90
2723;DHT22;1369;53.216;10.396;2023-02-22T03:28:01;9.00;99.90
2723;DHT22;1369;53.216;10.396;2023-02-22T03:36:18;9.00;99.90
2723;DHT22;1369;53.216;10.396;2023-02-22T03:38:46;9.00;99.90
2723;DHT22;1369;53.216;10.396;2023-02-22T03:41:15;8.90;99.90
2723;DHT22;1369;53.216;10.396;2023-02-22T03:43:46;8.90;99.90
2723;DHT22;1369;53.216;10.396;2023-02-22T03:46:13;8.90;99.90
2723;DHT22;1369;53.216;10.396;2023-02-22T03:48:59;8.90;99.90
2723;DHT22;1369;53.216;10.396;2023-02-22T03:51:27;8.90;99.90
2723;DHT22;1369;53.216;10.396;2023-02-22T03:53:53;8.90;99.90
2723;DHT22;1369;53.216;10.396;2023-02-22T03:56:25;8.90;99.90
2723;DHT22;1369;53.216;10.396;2023-02-22T03:58:51;8.90;99.90
2723;DHT22;1369;53.216;10.396;2023-02-22T04:01:17;8.90;99.90
2723;DHT22;1369;53.216;10.396;2023-02-22T04:03:44;8.90;99.90
2723;DHT22;1369;53.216;10.396;2023-02-22T04:06:10;8.90;99.90
2723;DHT22;1369;53.216;10.396;2023-02-22T04:08:36;9.00;99.90
2723;DHT22;1369;53.216;10.396;2023-02-22T04:11:01;9.00;99.90
2723;DHT22;1369;53.216;10.396;2023-02-22T04:13:27;9.00;99.90
2723;DHT22;1369;53.216;10.396;2023-02-22T04:15:56;9.00;99.90
2723;DHT22;1369;53.216;10.396;2023-02-22T04:18:21;8.90;99.90
2723;DHT22;1369;53.216;10.396;2023-02-22T04:20:47;8.90;99.90
2723;DHT22;1369;53.216;10.396;2023-02-22T04:23:12;9.00;99.90
2723;DHT22;1369;53.216;10.396;2023-02-22T04:25:38;9.00;99.90
2723;DHT22;1369;53.216;10.396;2023-02-22T04:28:03;9.00;99.90
2723;DHT22;1369;53.216;10.396;2023-02-22T04:30:29;9.00;99.90
2723;DHT22;1369;53.216;10.396;2023-02-22T04:32:55;9.00;99.90
2723;DHT22;1369;53.216;10.396;2023-02-22T04:35:21;9.00;99.90
2723;DHT22;1369;53.216;10.396;2023-02-22T04:37:47;9.00;99.90
2723;DHT22;1369;53.216;10.396;2023-02-22T04:40:12;9.00;99.90
2723;DHT22;1369;53.216;10.396;2023-02-22T04:42:38;9.00;99.90
2723;DHT22;1369;53.216;10.396;2023-02-22T04:45:06;9.00;99.90
2723;DHT22;1369;53.216;10.396;2023-02-22T04:47:33;9.00;99.90
2723;DHT22;1369;53.216;10.396;2023-02-22T04:49:58;9.00;99.90
2723;DHT22;1369;53.216;10.396;2023-02-22T04:52:24;9.00;99.90
2723;DHT22;1369;53.216;10.396;2023-02-22T04:54:50;9.00;99.90
2723;DHT22;1369;53.216;10.396;2023-02-22T04:57:16;9.00;99.90
2723;DHT22;1369;53.216;10.396;2023-02-22T04:59:41;9.00;99.90
2723;DHT22;1369;53.216;10.396;2023-02-22T05:02:06;9.00;99.90
2723;DHT22;1369;53.216;10.396;2023-02-22T05:04:32;9.00;99.90
2723;DHT22;1369;53.216;10.396;2023-02-22T05:06:57;9.00;99.90
2723;DHT22;1369;53.216;10.396;2023-02-22T05:09:23;9.00;99.90
2723;DHT22;1369;53.216;10.396;2023-02-22T05:11:48;9.00;99.90
2723;DHT22;1369;53.216;10.396;2023-02-22T05:14:14;9.00;99.90
2723;DHT22;1369;53.216;10.396;2023-02-22T05:16:39;9.00;99.90
2723;DHT22;1369;53.216;10.396;2023-02-22T05:19:05;9.00;99.90
2723;DHT22;1369;53.216;10.396;2023-02-22T05:21:31;9.00;99.90
2723;DHT22;1369;53.216;10.396;2023-02-22T05:23:56;9.00;99.90
2723;DHT22;1369;53.216;10.396;2023-02-22T05:26:22;8.90;99.90
2723;DHT22;1369;53.216;10.396;2023-02-22T05:28:47;9.00;99.90
2723;DHT22;1369;53.216;10.396;2023-02-22T05:31:13;8.90;99.90
2723;DHT22;1369;53.216;10.396;2023-02-22T05:33:38;9.00;99.90
2723;DHT22;1369;53.216;10.396;2023-02-22T05:36:05;9.00;99.90
2723;DHT22;1369;53.216;10.396;2023-02-22T05:38:32;9.00;99.90
2723;DHT22;1369;53.216;10.396;2023-02-22T05:40:57;8.90;99.90
2723;DHT22;1369;53.216;10.396;2023-02-22T05:43:23;9.00;99.90
2723;DHT22;1369;53.216;10.396;2023-02-22T05:45:48;9.00;99.90
2723;DHT22;1369;53.216;10.396;2023-02-22T05:48:14;8.90;99.90
2723;DHT22;1369;53.216;10.396;2023-02-22T05:50:39;9.00;99.90
2723;DHT22;1369;53.216;10.396;2023-02-22T05:53:05;9.00;99.90
2723;DHT22;1369;53.216;10.396;2023-02-22T05:55:31;9.00;99.90
2723;DHT22;1369;53.216;10.396;2023-02-22T05:57:57;9.00;99.90
2723;DHT22;1369;53.216;10.396;2023-02-22T06:00:26;9.00;99.90
2723;DHT22;1369;53.216;10.396;2023-02-22T06:02:56;9.00;99.90
2723;DHT22;1369;53.216;10.396;2023-02-22T06:05:23;9.00;99.90
2723;DHT22;1369;53.216;10.396;2023-02-22T06:07:48;8.90;99.90
2723;DHT22;1369;53.216;10.396;2023-02-22T06:10:15;8.90;99.90
2723;DHT22;1369;53.216;10.396;2023-02-22T06:12:40;8.90;99.90
2723;DHT22;1369;53.216;10.396;2023-02-22T06:15:06;8.90;99.90
2723;DHT22;1369;53.216;10.396;2023-02-22T06:17:32;8.90;99.90
2723;DHT22;1369;53.216;10.396;2023-02-22T06:19:57;8.90;99.90
2723;DHT22;1369;53.216;10.396;2023-02-22T06:22:23;8.90;99.90
2723;DHT22;1369;53.216;10.396;2023-02-22T06:24:48;8.90;99.90
2723;DHT22;1369;53.216;10.396;2023-02-22T06:27:14;8.90;99.90
2723;DHT22;1369;53.216;10.396;2023-02-22T06:29:44;8.90;99.90
2723;DHT22;1369;53.216;10.396;2023-02-22T06:32:10;8.90;99.90
2723;DHT22;1369;53.216;10.396;2023-02-22T06:34:35;8.90;99.90
2723;DHT22;1369;53.216;10.396;2023-02-22T06:37:01;8.80;99.90
2723;DHT22;1369;53.216;10.396;2023-02-22T06:39:26;8.80;99.90
2723;DHT22;1369;53.216;10.396;2023-02-22T06:41:52;8.80;99.90
2723;DHT22;1369;53.216;10.396;2023-02-22T06:44:19;8.80;99.90
2723;DHT22;1369;53.216;10.396;2023-02-22T06:46:48;8.80;99.90
2723;DHT22;1369;53.216;10.396;2023-02-22T06:49:15;8.80;99.90
2723;DHT22;1369;53.216;10.396;2023-02-22T06:51:41;8.80;99.90
2723;DHT22;1369;53.216;10.396;2023-02-22T06:54:07;8.80;99.90
2723;DHT22;1369;53.216;10.396;2023-02-22T06:56:32;8.80;99.90
2723;DHT22;1369;53.216;10.396;2023-02-22T06:58:58;8.90;99.90
2723;DHT22;1369;53.216;10.396;2023-02-22T07:01:23;8.90;99.90
2723;DHT22;1369;53.216;10.396;2023-02-22T07:03:49;8.90;99.90
2723;DHT22;1369;53.216;10.396;2023-02-22T07:06:14;8.90;99.90
2723;DHT22;1369;53.216;10.396;2023-02-22T07:08:40;8.80;99.90
2723;DHT22;1369;53.216;10.396;2023-02-22T07:11:05;8.90;99.90
2723;DHT22;1369;53.216;10.396;2023-02-22T07:13:31;8.90;99.90
2723;DHT22;1369;53.216;10.396;2023-02-22T07:15:56;8.90;99.90
2723;DHT22;1369;53.216;10.396;2023-02-22T07:18:21;8.90;99.90
2723;DHT22;1369;53.216;10.396;2023-02-22T07:20:48;8.90;99.90
2723;DHT22;1369;53.216;10.396;2023-02-22T07:23:15;9.00;99.90
2723;DHT22;1369;53.216;10.396;2023-02-22T07:25:41;9.00;99.90
2723;DHT22;1369;53.216;10.396;2023-02-22T07:28:07;9.00;99.90
2723;DHT22;1369;53.216;10.396;2023-02-22T07:30:32;9.00;99.90
2723;DHT22;1369;53.216;10.396;2023-02-22T07:33:04;9.00;99.90
2723;DHT22;1369;53.216;10.396;2023-02-22T07:35:32;9.10;99.90
2723;DHT22;1369;53.216;10.396;2023-02-22T07:37:58;9.10;99.90
2723;DHT22;1369;53.216;10.396;2023-02-22T07:40:25;9.20;99.90
2723;DHT22;1369;53.216;10.396;2023-02-22T07:42:55;9.20;99.90
2723;DHT22;1369;53.216;10.396;2023-02-22T07:45:23;9.20;99.90
2723;DHT22;1369;53.216;10.396;2023-02-22T07:47:49;9.30;99.90
2723;DHT22;1369;53.216;10.396;2023-02-22T07:50:16;9.30;99.90
2723;DHT22;1369;53.216;10.396;2023-02-22T07:52:51;9.30;99.90
2723;DHT22;1369;53.216;10.396;2023-02-22T07:55:20;9.30;99.90
2723;DHT22;1369;53.216;10.396;2023-02-22T07:57:48;9.20;99.90
2723;DHT22;1369;53.216;10.396;2023-02-22T08:00:20;9.20;99.90
2723;DHT22;1369;53.216;10.396;2023-02-22T08:02:48;9.20;99.90
2723;DHT22;1369;53.216;10.396;2023-02-22T08:05:14;9.20;99.90
2723;DHT22;1369;53.216;10.396;2023-02-22T08:07:40;9.20;99.90
2723;DHT22;1369;53.216;10.396;2023-02-22T08:10:06;9.20;99.90
2723;DHT22;1369;53.216;10.396;2023-02-22T08:12:36;9.20;99.90
2723;DHT22;1369;53.216;10.396;2023-02-22T08:15:03;9.20;99.90
2723;DHT22;1369;53.216;10.396;2023-02-22T08:17:29;9.30;99.90
2723;DHT22;1369;53.216;10.396;2023-02-22T08:19:55;9.40;99.90
2723;DHT22;1369;53.216;10.396;2023-02-22T08:22:20;9.30;99.90
2723;DHT22;1369;53.216;10.396;2023-02-22T08:24:46;9.30;99.90
2723;DHT22;1369;53.216;10.396;2023-02-22T08:27:11;9.30;99.90
2723;DHT22;1369;53.216;10.396;2023-02-22T08:29:37;9.30;99.90
2723;DHT22;1369;53.216;10.396;2023-02-22T08:32:02;9.40;99.90
2723;DHT22;1369;53.216;10.396;2023-02-22T08:34:28;9.40;99.90
2723;DHT22;1369;53.216;10.396;2023-02-22T08:36:54;9.40;99.90
2723;DHT22;1369;53.216;10.396;2023-02-22T08:39:20;9.30;99.90
2723;DHT22;1369;53.216;10.396;2023-02-22T08:41:45;9.30;99.90
2723;DHT22;1369;53.216;10.396;2023-02-22T08:44:11;9.30;99.90
2723;DHT22;1369;53.216;10.396;2023-02-22T08:46:36;9.30;99.90
2723;DHT22;1369;53.216;10.396;2023-02-22T08:49:03;9.40;99.90
2723;DHT22;1369;53.216;10.396;2023-02-22T08:51:34;9.40;99.90
2723;DHT22;1369;53.216;10.396;2023-02-22T08:54:00;9.50;99.90
2723;DHT22;1369;53.216;10.396;2023-02-22T08:56:26;9.50;99.90
2723;DHT22;1369;53.216;10.396;2023-02-22T08:58:51;9.50;99.90
2723;DHT22;1369;53.216;10.396;2023-02-22T09:01:17;9.50;99.90
2723;DHT22;1369;53.216;10.396;2023-02-22T09:03:42;9.40;99.90
2723;DHT22;1369;53.216;10.396;2023-02-22T09:06:12;9.40;99.90
2723;DHT22;1369;53.216;10.396;2023-02-22T09:08:37;9.50;99.90
2723;DHT22;1369;53.216;10.396;2023-02-22T09:11:03;9.60;99.90
2723;DHT22;1369;53.216;10.396;2023-02-22T09:13:28;9.70;99.90
2723;DHT22;1369;53.216;10.396;2023-02-22T09:15:53;9.80;99.90
2723;DHT22;1369;53.216;10.396;2023-02-22T09:18:19;9.90;99.90
2723;DHT22;1369;53.216;10.396;2023-02-22T09:20:45;9.90;99.90
2723;DHT22;1369;53.216;10.396;2023-02-22T09:23:11;10.00;99.90
2723;DHT22;1369;53.216;10.396;2023-02-22T09:25:36;9.90;99.90
2723;DHT22;1369;53.216;10.396;2023-02-22T09:28:05;10.00;99.90
2723;DHT22;1369;53.216;10.396;2023-02-22T09:30:35;10.00;99.90
2723;DHT22;1369;53.216;10.396;2023-02-22T09:33:03;9.90;99.90
2723;DHT22;1369;53.216;10.396;2023-02-22T09:35:29;10.00;99.90
2723;DHT22;1369;53.216;10.396;2023-02-22T09:37:57;10.00;99.90
2723;DHT22;1369;53.216;10.396;2023-02-22T09:40:25;10.10;99.90
2723;DHT22;1369;53.216;10.396;2023-02-22T09:45:38;10.30;99.90
2723;DHT22;1369;53.216;10.396;2023-02-22T09:48:14;10.40;99.90
2723;DHT22;1369;53.216;10.396;2023-02-22T09:50:42;10.50;99.90
2723;DHT22;1369;53.216;10.396;2023-02-22T09:53:34;10.50;99.90
2723;DHT22;1369;53.216;10.396;2023-02-22T09:56:07;10.60;99.90
2723;DHT22;1369;53.216;10.396;2023-02-22T09:58:40;10.70;99.90
2723;DHT22;1369;53.216;10.396;2023-02-22T10:01:30;11.00;99.90
2723;DHT22;1369;53.216;10.396;2023-02-22T10:07:14;11.10;99.90
2723;DHT22;1369;53.216;10.396;2023-02-22T10:09:42;11.30;99.90
2723;DHT22;1369;53.216;10.396;2023-02-22T10:17:23;11.90;99.90
2723;DHT22;1369;53.216;10.396;2023-02-22T10:22:54;12.00;99.90
2723;DHT22;1369;53.216;10.396;2023-02-22T10:25:25;12.00;99.90
2723;DHT22;1369;53.216;10.396;2023-02-22T10:27:58;12.20;99.90
2723;DHT22;1369;53.216;10.396;2023-02-22T10:30:34;12.10;99.90
2723;DHT22;1369;53.216;10.396;2023-02-22T10:33:20;12.10;99.90
2723;DHT22;1369;53.216;10.396;2023-02-22T10:35:46;12.10;99.90
2723;DHT22;1369;53.216;10.396;2023-02-22T10:38:23;12.20;99.90
2723;DHT22;1369;53.216;10.396;2023-02-22T10:43:41;12.30;99.90
2723;DHT22;1369;53.216;10.396;2023-02-22T10:46:11;12.20;99.90
2723;DHT22;1369;53.216;10.396;2023-02-22T10:48:39;12.20;99.90
2723;DHT22;1369;53.216;10.396;2023-02-22T10:51:07;12.40;99.90
2723;DHT22;1369;53.216;10.396;2023-02-22T10:53:34;12.30;99.90
2723;DHT22;1369;53.216;10.396;2023-02-22T10:56:21;12.10;99.90
2723;DHT22;1369;53.216;10.396;2023-02-22T10:58:56;12.30;99.90
2723;DHT22;1369;53.216;10.396;2023-02-22T11:04:20;12.50;99.90
2723;DHT22;1369;53.216;10.396;2023-02-22T11:07:07;12.50;99.90
2723;DHT22;1369;53.216;10.396;2023-02-22T11:10:06;12.40;99.90
2723;DHT22;1369;53.216;10.396;2023-02-22T11:12:38;12.50;99.90
2723;DHT22;1369;53.216;10.396;2023-02-22T11:17:48;12.60;99.90
2723;DHT22;1369;53.216;10.396;2023-02-22T11:20:25;12.80;99.90
2723;DHT22;1369;53.216;10.396;2023-02-22T11:22:53;12.70;99.90
2723;DHT22;1369;53.216;10.396;2023-02-22T11:25:23;12.70;99.90
2723;DHT22;1369;53.216;10.396;2023-02-22T11:27:51;12.90;99.90
2723;DHT22;1369;53.216;10.396;2023-02-22T11:30:28;13.00;99.90
2723;DHT22;1369;53.216;10.396;2023-02-22T11:33:02;13.00;99.90
2723;DHT22;1369;53.216;10.396;2023-02-22T11:35:32;13.10;99.90
2723;DHT22;1369;53.216;10.396;2023-02-22T11:38:20;12.90;99.90
2723;DHT22;1369;53.216;10.396;2023-02-22T11:41:03;12.80;99.90
2723;DHT22;1369;53.216;10.396;2023-02-22T11:43:29;12.60;99.90
2723;DHT22;1369;53.216;10.396;2023-02-22T11:46:04;12.70;99.90
2723;DHT22;1369;53.216;10.396;2023-02-22T11:48:33;12.70;99.90
2723;DHT22;1369;53.216;10.396;2023-02-22T11:56:35;12.70;99.90
2723;DHT22;1369;53.216;10.396;2023-02-22T11:59:12;12.80;99.90
2723;DHT22;1369;53.216;10.396;2023-02-22T12:01:54;12.90;99.90
2723;DHT22;1369;53.216;10.396;2023-02-22T12:04:46;13.10;99.90
2723;DHT22;1369;53.216;10.396;2023-02-22T12:08:19;12.90;99.90
2723;DHT22;1369;53.216;10.396;2023-02-22T12:21:25;12.60;99.90
2723;DHT22;1369;53.216;10.396;2023-02-22T12:24:11;12.70;99.90
2723;DHT22;1369;53.216;10.396;2023-02-22T12:26:43;12.80;99.90
2723;DHT22;1369;53.216;10.396;2023-02-22T12:29:26;12.80;99.90
2723;DHT22;1369;53.216;10.396;2023-02-22T12:31:59;12.70;99.90
2723;DHT22;1369;53.216;10.396;2023-02-22T12:37:00;13.00;99.90
2723;DHT22;1369;53.216;10.396;2023-02-22T12:39:37;13.00;99.90
2723;DHT22;1369;53.216;10.396;2023-02-22T12:42:15;13.00;99.90
2723;DHT22;1369;53.216;10.396;2023-02-22T12:44:46;13.10;99.90
2723;DHT22;1369;53.216;10.396;2023-02-22T12:47:18;13.10;99.90
2723;DHT22;1369;53.216;10.396;2023-02-22T12:49:58;13.10;99.90
2723;DHT22;1369;53.216;10.396;2023-02-22T12:52:52;13.30;99.90
2723;DHT22;1369;53.216;10.396;2023-02-22T12:55:24;13.40;99.90
2723;DHT22;1369;53.216;10.396;2023-02-22T13:00:45;13.30;99.90
2723;DHT22;1369;53.216;10.396;2023-02-22T13:05:38;13.40;99.90
2723;DHT22;1369;53.216;10.396;2023-02-22T13:08:40;13.60;99.90
2723;DHT22;1369;53.216;10.396;2023-02-22T13:11:21;13.70;99.90
2723;DHT22;1369;53.216;10.396;2023-02-22T13:14:15;13.60;99.90
2723;DHT22;1369;53.216;10.396;2023-02-22T13:19:44;13.50;99.90
2723;DHT22;1369;53.216;10.396;2023-02-22T13:22:34;13.50;99.90
2723;DHT22;1369;53.216;10.396;2023-02-22T13:25:25;13.40;99.90
2723;DHT22;1369;53.216;10.396;2023-02-22T13:27:58;13.30;99.90
2723;DHT22;1369;53.216;10.396;2023-02-22T13:30:36;13.20;99.90
2723;DHT22;1369;53.216;10.396;2023-02-22T13:41:32;13.20;99.90
2723;DHT22;1369;53.216;10.396;2023-02-22T13:47:17;13.20;99.90
2723;DHT22;1369;53.216;10.396;2023-02-22T13:49:58;13.30;99.90
2723;DHT22;1369;53.216;10.396;2023-02-22T13:52:30;13.20;99.90
2723;DHT22;1369;53.216;10.396;2023-02-22T13:55:03;13.20;99.90
2723;DHT22;1369;53.216;10.396;2023-02-22T13:57:41;13.10;99.90
2723;DHT22;1369;53.216;10.396;2023-02-22T14:03:17;13.00;99.90
2723;DHT22;1369;53.216;10.396;2023-02-22T14:05:53;13.00;99.90
2723;DHT22;1369;53.216;10.396;2023-02-22T14:10:50;13.00;99.90
2723;DHT22;1369;53.216;10.396;2023-02-22T14:13:20;12.90;99.90
2723;DHT22;1369;53.216;10.396;2023-02-22T14:18:25;12.60;99.90
2723;DHT22;1369;53.216;10.396;2023-02-22T14:21:09;12.60;99.90
2723;DHT22;1369;53.216;10.396;2023-02-22T14:23:42;12.60;99.90
2723;DHT22;1369;53.216;10.396;2023-02-22T14:26:29;12.50;99.90
2723;DHT22;1369;53.216;10.396;2023-02-22T14:31:26;12.60;99.90
2723;DHT22;1369;53.216;10.396;2023-02-22T14:37:02;12.70;99.90
2723;DHT22;1369;53.216;10.396;2023-02-22T14:39:50;12.50;99.90
2723;DHT22;1369;53.216;10.396;2023-02-22T14:42:28;12.60;99.90
2723;DHT22;1369;53.216;10.396;2023-02-22T14:45:19;12.60;99.90
2723;DHT22;1369;53.216;10.396;2023-02-22T14:50:50;12.50;99.90
2723;DHT22;1369;53.216;10.396;2023-02-22T14:53:28;12.60;99.90
2723;DHT22;1369;53.216;10.396;2023-02-22T14:58:39;12.60;99.90
2723;DHT22;1369;53.216;10.396;2023-02-22T15:01:23;12.60;99.90
2723;DHT22;1369;53.216;10.396;2023-02-22T15:03:49;12.60;99.90
2723;DHT22;1369;53.216;10.396;2023-02-22T15:08:43;12.60;99.90
2723;DHT22;1369;53.216;10.396;2023-02-22T15:11:24;12.60;99.90
2723;DHT22;1369;53.216;10.396;2023-02-22T15:13:52;12.50;99.90
2723;DHT22;1369;53.216;10.396;2023-02-22T15:16:20;12.50;99.90
2723;DHT22;1369;53.216;10.396;2023-02-22T15:18:48;12.50;99.90
2723;DHT22;1369;53.216;10.396;2023-02-22T15:21:18;12.40;99.90
2723;DHT22;1369;53.216;10.396;2023-02-22T15:23:49;12.40;99.90
2723;DHT22;1369;53.216;10.396;2023-02-22T15:26:38;12.40;99.90
2723;DHT22;1369;53.216;10.396;2023-02-22T15:29:12;12.30;99.90
2723;DHT22;1369;53.216;10.396;2023-02-22T15:31:38;12.40;99.90
2723;DHT22;1369;53.216;10.396;2023-02-22T15:36:44;12.30;99.90
2723;DHT22;1369;53.216;10.396;2023-02-22T15:39:28;12.20;99.90
2723;DHT22;1369;53.216;10.396;2023-02-22T15:42:13;12.10;99.90
2723;DHT22;1369;53.216;10.396;2023-02-22T15:44:49;12.10;99.90
2723;DHT22;1369;53.216;10.396;2023-02-22T15:47:26;12.00;99.90
2723;DHT22;1369;53.216;10.396;2023-02-22T15:50:21;12.00;99.90
2723;DHT22;1369;53.216;10.396;2023-02-22T15:53:01;11.90;99.90
2723;DHT22;1369;53.216;10.396;2023-02-22T15:55:30;11.90;99.90
2723;DHT22;1369;53.216;10.396;2023-02-22T15:57:59;11.90;99.90
2723;DHT22;1369;53.216;10.396;2023-02-22T16:00:30;11.90;99.90
2723;DHT22;1369;53.216;10.396;2023-02-22T16:03:05;11.80;99.90
2723;DHT22;1369;53.216;10.396;2023-02-22T16:05:46;11.70;99.90
2723;DHT22;1369;53.216;10.396;2023-02-22T16:08:20;11.70;99.90
2723;DHT22;1369;53.216;10.396;2023-02-22T16:10:51;11.60;99.90
2723;DHT22;1369;53.216;10.396;2023-02-22T16:13:23;11.50;99.90
2723;DHT22;1369;53.216;10.396;2023-02-22T16:16:02;11.50;99.90
2723;DHT22;1369;53.216;10.396;2023-02-22T16:18:36;11.40;99.90
2723;DHT22;1369;53.216;10.396;2023-02-22T16:21:11;11.40;99.90
2723;DHT22;1369;53.216;10.396;2023-02-22T16:23:45;11.30;99.90
2723;DHT22;1369;53.216;10.396;2023-02-22T16:26:32;11.30;99.90
2723;DHT22;1369;53.216;10.396;2023-02-22T16:29:00;11.20;99.90
2723;DHT22;1369;53.216;10.396;2023-02-22T16:31:34;11.10;99.90
2723;DHT22;1369;53.216;10.396;2023-02-22T16:34:03;11.10;99.90
2723;DHT22;1369;53.216;10.396;2023-02-22T16:36:40;11.00;99.90
2723;DHT22;1369;53.216;10.396;2023-02-22T16:39:10;11.00;99.90
2723;DHT22;1369;53.216;10.396;2023-02-22T16:41:38;11.00;99.90
2723;DHT22;1369;53.216;10.396;2023-02-22T16:44:03;11.00;99.90
2723;DHT22;1369;53.216;10.396;2023-02-22T16:46:32;10.90;99.90
2723;DHT22;1369;53.216;10.396;2023-02-22T16:48:57;10.80;99.90
2723;DHT22;1369;53.216;10.396;2023-02-22T16:51:28;10.80;99.90
2723;DHT22;1369;53.216;10.396;2023-02-22T16:53:56;10.80;99.90
2723;DHT22;1369;53.216;10.396;2023-02-22T16:56:27;10.80;99.90
2723;DHT22;1369;53.216;10.396;2023-02-22T16:58:53;10.70;99.90
2723;DHT22;1369;53.216;10.396;2023-02-22T17:01:19;10.70;99.90
2723;DHT22;1369;53.216;10.396;2023-02-22T17:03:47;10.70;99.90
2723;DHT22;1369;53.216;10.396;2023-02-22T17:06:15;10.70;99.90
2723;DHT22;1369;53.216;10.396;2023-02-22T17:08:41;10.60;99.90
2723;DHT22;1369;53.216;10.396;2023-02-22T17:11:08;10.60;99.90
2723;DHT22;1369;53.216;10.396;2023-02-22T17:13:35;10.50;99.90
2723;DHT22;1369;53.216;10.396;2023-02-22T17:16:02;10.50;99.90
2723;DHT22;1369;53.216;10.396;2023-02-22T17:18:27;10.50;99.90
2723;DHT22;1369;53.216;10.396;2023-02-22T17:20:59;10.50;99.90
2723;DHT22;1369;53.216;10.396;2023-02-22T17:23:24;10.50;99.90
2723;DHT22;1369;53.216;10.396;2023-02-22T17:25:54;10.50;99.90
2723;DHT22;1369;53.216;10.396;2023-02-22T17:28:24;10.50;99.90
2723;DHT22;1369;53.216;10.396;2023-02-22T17:30:50;10.40;99.90
2723;DHT22;1369;53.216;10.396;2023-02-22T17:33:18;10.40;99.90
2723;DHT22;1369;53.216;10.396;2023-02-22T17:35:45;10.30;99.90
2723;DHT22;1369;53.216;10.396;2023-02-22T17:38:12;10.30;99.90
2723;DHT22;1369;53.216;10.396;2023-02-22T17:40:38;10.30;99.90
2723;DHT22;1369;53.216;10.396;2023-02-22T17:43:05;10.30;99.90
2723;DHT22;1369;53.216;10.396;2023-02-22T17:45:34;10.30;99.90
2723;DHT22;1369;53.216;10.396;2023-02-22T17:48:02;10.30;99.90
2723;DHT22;1369;53.216;10.396;2023-02-22T17:50:27;10.30;99.90
2723;DHT22;1369;53.216;10.396;2023-02-22T17:52:56;10.20;99.90
2723;DHT22;1369;53.216;10.396;2023-02-22T17:55:21;10.20;99.90
2723;DHT22;1369;53.216;10.396;2023-02-22T17:57:51;10.20;99.90
2723;DHT22;1369;53.216;10.396;2023-02-22T18:00:17;10.20;99.90
2723;DHT22;1369;53.216;10.396;2023-02-22T18:03:01;10.10;99.90
2723;DHT22;1369;53.216;10.396;2023-02-22T18:05:27;10.10;99.90
2723;DHT22;1369;53.216;10.396;2023-02-22T18:07:53;10.10;99.90